sensor_id;sensor_type;location;lat;lon;timestamp;P1;durP1;ratioP1;P2;durP2;ratioP2
1925;SDS011;964;42.606;23.588;2023-06-04T00:02:23;4.20;;;3.60;;
1925;SDS011;964;42.606;23.588;2023-06-04T00:04:50;5.57;;;4.07;;
1925;SDS011;964;42.606;23.588;2023-06-04T00:07:17;3.90;;;3.27;;
1925;SDS011;964;42.606;23.588;2023-06-04T00:09:44;4.00;;;3.30;;
1925;SDS011;964;42.606;23.588;2023-06-04T00:12:13;3.83;;;3.43;;
1925;SDS011;964;42.606;23.588;2023-06-04T00:14:40;5.03;;;3.40;;
1925;SDS011;964;42.606;23.588;2023-06-04T00:17:07;3.90;;;3.50;;
1925;SDS011;964;42.606;23.588;2023-06-04T00:19:34;6.37;;;3.47;;
1925;SDS011;964;42.606;23.588;2023-06-04T00:22:01;4.33;;;3.93;;
1925;SDS011;964;42.606;23.588;2023-06-04T00:24:28;9.83;;;4.20;;
1925;SDS011;964;42.606;23.588;2023-06-04T00:26:54;4.80;;;4.20;;
1925;SDS011;964;42.606;23.588;2023-06-04T00:29:22;5.90;;;4.30;;
1925;SDS011;964;42.606;23.588;2023-06-04T00:31:49;4.40;;;3.93;;
1925;SDS011;964;42.606;23.588;2023-06-04T00:34:16;4.53;;;4.13;;
1925;SDS011;964;42.606;23.588;2023-06-04T00:36:43;4.87;;;4.17;;
1925;SDS011;964;42.606;23.588;2023-06-04T00:39:10;7.27;;;4.70;;
1925;SDS011;964;42.606;23.588;2023-06-04T00:41:36;4.93;;;4.13;;
1925;SDS011;964;42.606;23.588;2023-06-04T00:44:03;3.60;;;3.30;;
1925;SDS011;964;42.606;23.588;2023-06-04T00:46:32;5.87;;;3.97;;
1925;SDS011;964;42.606;23.588;2023-06-04T00:49:02;4.67;;;4.10;;
1925;SDS011;964;42.606;23.588;2023-06-04T00:51:29;4.63;;;4.17;;
1925;SDS011;964;42.606;23.588;2023-06-04T00:53:56;4.17;;;3.37;;
1925;SDS011;964;42.606;23.588;2023-06-04T00:56:24;5.17;;;3.50;;
1925;SDS011;964;42.606;23.588;2023-06-04T00:58:51;4.27;;;3.87;;
1925;SDS011;964;42.606;23.588;2023-06-04T01:01:20;5.53;;;3.80;;
1925;SDS011;964;42.606;23.588;2023-06-04T01:03:54;6.80;;;4.97;;
1925;SDS011;964;42.606;23.588;2023-06-04T01:06:25;8.83;;;5.03;;
1925;SDS011;964;42.606;23.588;2023-06-04T01:08:57;8.43;;;5.43;;
1925;SDS011;964;42.606;23.588;2023-06-04T01:11:34;10.73;;;5.40;;
1925;SDS011;964;42.606;23.588;2023-06-04T01:14:02;6.97;;;4.37;;
1925;SDS011;964;42.606;23.588;2023-06-04T01:16:31;5.23;;;4.70;;
1925;SDS011;964;42.606;23.588;2023-06-04T01:19:22;5.50;;;4.13;;
1925;SDS011;964;42.606;23.588;2023-06-04T01:22:03;5.13;;;4.00;;
1925;SDS011;964;42.606;23.588;2023-06-04T01:24:41;6.00;;;4.57;;
1925;SDS011;964;42.606;23.588;2023-06-04T01:27:11;5.37;;;4.80;;
1925;SDS011;964;42.606;23.588;2023-06-04T01:29:41;7.10;;;4.27;;
1925;SDS011;964;42.606;23.588;2023-06-04T01:32:08;5.83;;;4.80;;
1925;SDS011;964;42.606;23.588;2023-06-04T01:34:44;5.37;;;4.87;;
1925;SDS011;964;42.606;23.588;2023-06-04T01:37:11;5.20;;;4.70;;
1925;SDS011;964;42.606;23.588;2023-06-04T01:39:38;6.73;;;4.80;;
1925;SDS011;964;42.606;23.588;2023-06-04T01:42:06;6.20;;;5.60;;
1925;SDS011;964;42.606;23.588;2023-06-04T01:44:33;7.80;;;5.17;;
1925;SDS011;964;42.606;23.588;2023-06-04T01:47:00;5.73;;;4.70;;
1925;SDS011;964;42.606;23.588;2023-06-04T01:49:26;5.57;;;5.07;;
1925;SDS011;964;42.606;23.588;2023-06-04T01:51:54;7.90;;;4.67;;
1925;SDS011;964;42.606;23.588;2023-06-04T01:54:22;6.00;;;4.90;;
1925;SDS011;964;42.606;23.588;2023-06-04T01:56:48;7.70;;;4.77;;
1925;SDS011;964;42.606;23.588;2023-06-04T01:59:15;5.10;;;4.20;;
1925;SDS011;964;42.606;23.588;2023-06-04T02:01:42;4.33;;;3.93;;
1925;SDS011;964;42.606;23.588;2023-06-04T02:04:08;4.60;;;4.20;;
1925;SDS011;964;42.606;23.588;2023-06-04T02:06:35;4.40;;;4.00;;
1925;SDS011;964;42.606;23.588;2023-06-04T02:09:04;4.27;;;3.87;;
1925;SDS011;964;42.606;23.588;2023-06-04T02:11:30;5.63;;;4.00;;
1925;SDS011;964;42.606;23.588;2023-06-04T02:13:57;4.57;;;4.17;;
1925;SDS011;964;42.606;23.588;2023-06-04T02:16:24;5.10;;;3.73;;
1925;SDS011;964;42.606;23.588;2023-06-04T02:18:50;5.87;;;4.90;;
1925;SDS011;964;42.606;23.588;2023-06-04T02:21:17;6.00;;;5.00;;
1925;SDS011;964;42.606;23.588;2023-06-04T02:23:44;4.73;;;4.23;;
1925;SDS011;964;42.606;23.588;2023-06-04T02:26:12;5.17;;;4.77;;
1925;SDS011;964;42.606;23.588;2023-06-04T02:28:38;5.50;;;4.53;;
1925;SDS011;964;42.606;23.588;2023-06-04T02:31:05;4.93;;;4.20;;
1925;SDS011;964;42.606;23.588;2023-06-04T02:33:32;5.20;;;4.70;;
1925;SDS011;964;42.606;23.588;2023-06-04T02:35:58;5.37;;;4.87;;
1925;SDS011;964;42.606;23.588;2023-06-04T02:38:26;5.17;;;4.40;;
1925;SDS011;964;42.606;23.588;2023-06-04T02:40:55;4.40;;;3.97;;
1925;SDS011;964;42.606;23.588;2023-06-04T02:43:23;4.70;;;4.20;;
1925;SDS011;964;42.606;23.588;2023-06-04T02:45:50;5.67;;;4.13;;
1925;SDS011;964;42.606;23.588;2023-06-04T02:48:16;4.73;;;3.80;;
1925;SDS011;964;42.606;23.588;2023-06-04T02:50:43;5.77;;;4.50;;
1925;SDS011;964;42.606;23.588;2023-06-04T02:53:10;5.10;;;4.47;;
1925;SDS011;964;42.606;23.588;2023-06-04T02:55:36;5.93;;;4.70;;
1925;SDS011;964;42.606;23.588;2023-06-04T02:58:03;5.23;;;4.70;;
1925;SDS011;964;42.606;23.588;2023-06-04T03:00:31;5.30;;;4.87;;
1925;SDS011;964;42.606;23.588;2023-06-04T03:02:58;7.80;;;6.37;;
1925;SDS011;964;42.606;23.588;2023-06-04T03:05:26;6.97;;;5.27;;
1925;SDS011;964;42.606;23.588;2023-06-04T03:07:55;8.80;;;6.00;;
1925;SDS011;964;42.606;23.588;2023-06-04T03:10:23;7.40;;;5.80;;
1925;SDS011;964;42.606;23.588;2023-06-04T03:12:50;7.20;;;6.10;;
1925;SDS011;964;42.606;23.588;2023-06-04T03:15:17;6.30;;;5.60;;
1925;SDS011;964;42.606;23.588;2023-06-04T03:17:45;6.60;;;6.00;;
1925;SDS011;964;42.606;23.588;2023-06-04T03:20:11;8.23;;;6.20;;
1925;SDS011;964;42.606;23.588;2023-06-04T03:22:38;7.83;;;6.23;;
1925;SDS011;964;42.606;23.588;2023-06-04T03:25:05;7.40;;;6.17;;
1925;SDS011;964;42.606;23.588;2023-06-04T03:27:32;10.80;;;6.30;;
1925;SDS011;964;42.606;23.588;2023-06-04T03:29:59;7.17;;;6.47;;
1925;SDS011;964;42.606;23.588;2023-06-04T03:32:26;10.73;;;6.00;;
1925;SDS011;964;42.606;23.588;2023-06-04T03:34:54;8.80;;;7.17;;
1925;SDS011;964;42.606;23.588;2023-06-04T03:37:21;9.37;;;6.93;;
1925;SDS011;964;42.606;23.588;2023-06-04T03:39:47;9.20;;;7.07;;
1925;SDS011;964;42.606;23.588;2023-06-04T03:42:14;8.63;;;6.53;;
1925;SDS011;964;42.606;23.588;2023-06-04T03:44:41;7.17;;;6.47;;
1925;SDS011;964;42.606;23.588;2023-06-04T03:47:07;8.03;;;6.43;;
1925;SDS011;964;42.606;23.588;2023-06-04T03:49:34;7.43;;;6.73;;
1925;SDS011;964;42.606;23.588;2023-06-04T03:52:02;7.13;;;6.33;;
1925;SDS011;964;42.606;23.588;2023-06-04T03:54:29;10.27;;;6.10;;
1925;SDS011;964;42.606;23.588;2023-06-04T03:56:55;7.80;;;6.60;;
1925;SDS011;964;42.606;23.588;2023-06-04T03:59:22;7.63;;;6.70;;
1925;SDS011;964;42.606;23.588;2023-06-04T04:01:49;7.80;;;6.03;;
1925;SDS011;964;42.606;23.588;2023-06-04T04:04:15;7.23;;;6.37;;
1925;SDS011;964;42.606;23.588;2023-06-04T04:06:42;7.53;;;6.83;;
1925;SDS011;964;42.606;23.588;2023-06-04T04:09:10;8.40;;;6.97;;
1925;SDS011;964;42.606;23.588;2023-06-04T04:11:37;7.27;;;6.20;;
1925;SDS011;964;42.606;23.588;2023-06-04T04:14:03;7.30;;;6.60;;
1925;SDS011;964;42.606;23.588;2023-06-04T04:16:31;7.60;;;6.57;;
1925;SDS011;964;42.606;23.588;2023-06-04T04:18:58;7.57;;;6.40;;
1925;SDS011;964;42.606;23.588;2023-06-04T04:21:25;9.60;;;6.83;;
1925;SDS011;964;42.606;23.588;2023-06-04T04:23:51;11.70;;;7.50;;
1925;SDS011;964;42.606;23.588;2023-06-04T04:26:20;8.87;;;7.63;;
1925;SDS011;964;42.606;23.588;2023-06-04T04:28:48;13.83;;;6.57;;
1925;SDS011;964;42.606;23.588;2023-06-04T04:31:17;7.90;;;7.20;;
1925;SDS011;964;42.606;23.588;2023-06-04T04:33:44;8.20;;;7.40;;
1925;SDS011;964;42.606;23.588;2023-06-04T04:36:10;10.07;;;7.47;;
1925;SDS011;964;42.606;23.588;2023-06-04T04:38:38;12.53;;;7.80;;
1925;SDS011;964;42.606;23.588;2023-06-04T04:41:05;8.43;;;7.50;;
1925;SDS011;964;42.606;23.588;2023-06-04T04:43:35;8.37;;;7.53;;
1925;SDS011;964;42.606;23.588;2023-06-04T04:46:04;10.23;;;7.50;;
1925;SDS011;964;42.606;23.588;2023-06-04T04:48:31;7.50;;;6.77;;
1925;SDS011;964;42.606;23.588;2023-06-04T04:50:58;8.07;;;7.10;;
1925;SDS011;964;42.606;23.588;2023-06-04T04:53:25;9.17;;;8.00;;
1925;SDS011;964;42.606;23.588;2023-06-04T04:55:52;12.40;;;7.13;;
1925;SDS011;964;42.606;23.588;2023-06-04T04:58:19;8.10;;;7.40;;
1925;SDS011;964;42.606;23.588;2023-06-04T05:00:47;8.97;;;7.40;;
1925;SDS011;964;42.606;23.588;2023-06-04T05:03:14;7.57;;;6.50;;
1925;SDS011;964;42.606;23.588;2023-06-04T05:05:40;7.57;;;6.87;;
1925;SDS011;964;42.606;23.588;2023-06-04T05:08:08;9.10;;;6.90;;
1925;SDS011;964;42.606;23.588;2023-06-04T05:10:35;8.30;;;7.20;;
1925;SDS011;964;42.606;23.588;2023-06-04T05:13:02;7.77;;;6.97;;
1925;SDS011;964;42.606;23.588;2023-06-04T05:15:29;8.57;;;7.77;;
1925;SDS011;964;42.606;23.588;2023-06-04T05:17:57;8.90;;;7.20;;
1925;SDS011;964;42.606;23.588;2023-06-04T05:20:25;7.83;;;7.03;;
1925;SDS011;964;42.606;23.588;2023-06-04T05:22:52;7.63;;;6.30;;
1925;SDS011;964;42.606;23.588;2023-06-04T05:25:20;10.13;;;7.37;;
1925;SDS011;964;42.606;23.588;2023-06-04T05:27:47;6.97;;;6.27;;
1925;SDS011;964;42.606;23.588;2023-06-04T05:30:14;7.37;;;6.67;;
1925;SDS011;964;42.606;23.588;2023-06-04T05:32:41;7.73;;;6.30;;
1925;SDS011;964;42.606;23.588;2023-06-04T05:35:09;8.20;;;6.20;;
1925;SDS011;964;42.606;23.588;2023-06-04T05:37:37;13.20;;;7.10;;
1925;SDS011;964;42.606;23.588;2023-06-04T05:40:06;9.27;;;7.13;;
1925;SDS011;964;42.606;23.588;2023-06-04T05:42:34;12.23;;;6.40;;
1925;SDS011;964;42.606;23.588;2023-06-04T05:45:00;8.13;;;6.33;;
1925;SDS011;964;42.606;23.588;2023-06-04T05:47:27;10.20;;;7.00;;
1925;SDS011;964;42.606;23.588;2023-06-04T05:49:55;10.80;;;6.70;;
1925;SDS011;964;42.606;23.588;2023-06-04T05:52:23;6.27;;;5.50;;
1925;SDS011;964;42.606;23.588;2023-06-04T05:54:50;7.40;;;6.00;;
1925;SDS011;964;42.606;23.588;2023-06-04T05:57:16;7.47;;;6.77;;
1925;SDS011;964;42.606;23.588;2023-06-04T05:59:43;6.90;;;6.20;;
1925;SDS011;964;42.606;23.588;2023-06-04T06:02:10;8.13;;;7.00;;
1925;SDS011;964;42.606;23.588;2023-06-04T06:04:37;7.17;;;6.43;;
1925;SDS011;964;42.606;23.588;2023-06-04T06:07:04;6.20;;;5.13;;
1925;SDS011;964;42.606;23.588;2023-06-04T06:09:32;9.83;;;6.70;;
1925;SDS011;964;42.606;23.588;2023-06-04T06:11:59;8.73;;;6.23;;
1925;SDS011;964;42.606;23.588;2023-06-04T06:14:25;6.30;;;5.70;;
1925;SDS011;964;42.606;23.588;2023-06-04T06:16:52;6.27;;;5.37;;
1925;SDS011;964;42.606;23.588;2023-06-04T06:19:19;6.10;;;5.50;;
1925;SDS011;964;42.606;23.588;2023-06-04T06:21:45;5.87;;;5.37;;
1925;SDS011;964;42.606;23.588;2023-06-04T06:24:12;7.20;;;6.50;;
1925;SDS011;964;42.606;23.588;2023-06-04T06:26:40;6.63;;;6.03;;
1925;SDS011;964;42.606;23.588;2023-06-04T06:29:07;6.43;;;5.67;;
1925;SDS011;964;42.606;23.588;2023-06-04T06:31:34;7.80;;;5.40;;
1925;SDS011;964;42.606;23.588;2023-06-04T06:34:01;6.53;;;5.53;;
1925;SDS011;964;42.606;23.588;2023-06-04T06:36:27;9.63;;;6.03;;
1925;SDS011;964;42.606;23.588;2023-06-04T06:38:54;7.10;;;5.37;;
1925;SDS011;964;42.606;23.588;2023-06-04T06:41:21;6.87;;;5.30;;
1925;SDS011;964;42.606;23.588;2023-06-04T06:43:49;9.13;;;6.10;;
1925;SDS011;964;42.606;23.588;2023-06-04T06:46:16;7.60;;;5.33;;
1925;SDS011;964;42.606;23.588;2023-06-04T06:48:42;6.60;;;5.50;;
1925;SDS011;964;42.606;23.588;2023-06-04T06:51:10;5.73;;;5.20;;
1925;SDS011;964;42.606;23.588;2023-06-04T06:53:37;7.67;;;5.83;;
1925;SDS011;964;42.606;23.588;2023-06-04T06:56:04;7.00;;;5.90;;
1925;SDS011;964;42.606;23.588;2023-06-04T06:58:31;6.13;;;5.53;;
1925;SDS011;964;42.606;23.588;2023-06-04T07:00:59;5.57;;;4.97;;
1925;SDS011;964;42.606;23.588;2023-06-04T07:03:26;5.53;;;5.03;;
1925;SDS011;964;42.606;23.588;2023-06-04T07:05:53;6.03;;;5.53;;
1925;SDS011;964;42.606;23.588;2023-06-04T07:08:19;6.17;;;5.57;;
1925;SDS011;964;42.606;23.588;2023-06-04T07:10:46;5.50;;;5.00;;
1925;SDS011;964;42.606;23.588;2023-06-04T07:13:13;6.20;;;5.70;;
1925;SDS011;964;42.606;23.588;2023-06-04T07:15:40;5.90;;;4.73;;
1925;SDS011;964;42.606;23.588;2023-06-04T07:18:08;6.93;;;6.03;;
1925;SDS011;964;42.606;23.588;2023-06-04T07:20:35;12.23;;;5.70;;
1925;SDS011;964;42.606;23.588;2023-06-04T07:23:01;6.83;;;6.13;;
1925;SDS011;964;42.606;23.588;2023-06-04T07:25:28;6.10;;;5.60;;
1925;SDS011;964;42.606;23.588;2023-06-04T07:27:55;7.10;;;6.40;;
1925;SDS011;964;42.606;23.588;2023-06-04T07:30:23;7.70;;;5.80;;
1925;SDS011;964;42.606;23.588;2023-06-04T07:32:49;7.60;;;6.80;;
1925;SDS011;964;42.606;23.588;2023-06-04T07:35:18;7.00;;;6.30;;
1925;SDS011;964;42.606;23.588;2023-06-04T07:37:44;7.13;;;5.97;;
1925;SDS011;964;42.606;23.588;2023-06-04T07:40:13;7.63;;;6.60;;
1925;SDS011;964;42.606;23.588;2023-06-04T07:42:39;7.87;;;5.80;;
1925;SDS011;964;42.606;23.588;2023-06-04T07:45:07;6.03;;;5.53;;
1925;SDS011;964;42.606;23.588;2023-06-04T07:47:35;9.03;;;6.10;;
1925;SDS011;964;42.606;23.588;2023-06-04T07:50:01;6.30;;;5.23;;
1925;SDS011;964;42.606;23.588;2023-06-04T07:52:30;6.17;;;5.50;;
1925;SDS011;964;42.606;23.588;2023-06-04T07:54:57;8.40;;;6.03;;
1925;SDS011;964;42.606;23.588;2023-06-04T07:57:24;8.20;;;6.13;;
1925;SDS011;964;42.606;23.588;2023-06-04T07:59:51;6.50;;;5.90;;
1925;SDS011;964;42.606;23.588;2023-06-04T08:02:17;6.20;;;5.60;;
1925;SDS011;964;42.606;23.588;2023-06-04T08:04:44;5.60;;;5.10;;
1925;SDS011;964;42.606;23.588;2023-06-04T08:07:12;7.83;;;6.20;;
1925;SDS011;964;42.606;23.588;2023-06-04T08:09:40;6.87;;;6.17;;
1925;SDS011;964;42.606;23.588;2023-06-04T08:12:09;6.57;;;5.90;;
1925;SDS011;964;42.606;23.588;2023-06-04T08:14:35;6.20;;;5.70;;
1925;SDS011;964;42.606;23.588;2023-06-04T08:17:02;6.97;;;5.90;;
1925;SDS011;964;42.606;23.588;2023-06-04T08:19:29;6.50;;;5.80;;
1925;SDS011;964;42.606;23.588;2023-06-04T08:21:55;6.80;;;6.10;;
1925;SDS011;964;42.606;23.588;2023-06-04T08:24:22;7.60;;;6.17;;
1925;SDS011;964;42.606;23.588;2023-06-04T08:26:50;6.40;;;5.80;;
1925;SDS011;964;42.606;23.588;2023-06-04T08:29:16;6.70;;;6.00;;
1925;SDS011;964;42.606;23.588;2023-06-04T08:31:43;7.10;;;6.37;;
1925;SDS011;964;42.606;23.588;2023-06-04T08:34:10;6.80;;;5.70;;
1925;SDS011;964;42.606;23.588;2023-06-04T08:36:37;6.23;;;5.63;;
1925;SDS011;964;42.606;23.588;2023-06-04T08:39:04;6.90;;;5.93;;
1925;SDS011;964;42.606;23.588;2023-06-04T08:41:34;9.50;;;6.20;;
1925;SDS011;964;42.606;23.588;2023-06-04T08:44:10;6.97;;;6.27;;
1925;SDS011;964;42.606;23.588;2023-06-04T08:46:38;6.27;;;5.50;;
1925;SDS011;964;42.606;23.588;2023-06-04T08:49:06;7.13;;;5.87;;
1925;SDS011;964;42.606;23.588;2023-06-04T08:51:35;8.40;;;7.00;;
1925;SDS011;964;42.606;23.588;2023-06-04T08:54:03;8.20;;;5.80;;
1925;SDS011;964;42.606;23.588;2023-06-04T08:56:30;6.60;;;5.83;;
1925;SDS011;964;42.606;23.588;2023-06-04T08:58:59;5.57;;;5.07;;
1925;SDS011;964;42.606;23.588;2023-06-04T09:01:29;9.57;;;6.10;;
1925;SDS011;964;42.606;23.588;2023-06-04T09:03:57;8.73;;;6.60;;
1925;SDS011;964;42.606;23.588;2023-06-04T09:06:25;7.33;;;6.40;;
1925;SDS011;964;42.606;23.588;2023-06-04T09:08:52;8.00;;;7.20;;
1925;SDS011;964;42.606;23.588;2023-06-04T09:11:22;7.70;;;6.17;;
1925;SDS011;964;42.606;23.588;2023-06-04T09:13:52;6.53;;;5.90;;
1925;SDS011;964;42.606;23.588;2023-06-04T09:16:22;8.57;;;5.50;;
1925;SDS011;964;42.606;23.588;2023-06-04T09:18:50;6.57;;;5.93;;
1925;SDS011;964;42.606;23.588;2023-06-04T09:21:17;10.90;;;5.60;;
1925;SDS011;964;42.606;23.588;2023-06-04T09:23:45;6.93;;;5.67;;
1925;SDS011;964;42.606;23.588;2023-06-04T09:26:12;6.50;;;5.87;;
1925;SDS011;964;42.606;23.588;2023-06-04T09:28:40;9.20;;;5.40;;
1925;SDS011;964;42.606;23.588;2023-06-04T09:31:08;7.73;;;6.93;;
1925;SDS011;964;42.606;23.588;2023-06-04T09:33:41;6.67;;;5.53;;
1925;SDS011;964;42.606;23.588;2023-06-04T09:36:10;7.17;;;6.47;;
1925;SDS011;964;42.606;23.588;2023-06-04T09:38:36;9.73;;;7.10;;
1925;SDS011;964;42.606;23.588;2023-06-04T09:41:04;8.13;;;6.50;;
1925;SDS011;964;42.606;23.588;2023-06-04T09:43:31;10.97;;;7.87;;
1925;SDS011;964;42.606;23.588;2023-06-04T09:46:08;7.90;;;7.20;;
1925;SDS011;964;42.606;23.588;2023-06-04T09:48:35;7.43;;;6.77;;
1925;SDS011;964;42.606;23.588;2023-06-04T09:51:06;10.13;;;7.43;;
1925;SDS011;964;42.606;23.588;2023-06-04T09:53:34;9.23;;;8.33;;
1925;SDS011;964;42.606;23.588;2023-06-04T09:56:02;8.13;;;7.33;;
1925;SDS011;964;42.606;23.588;2023-06-04T09:58:31;12.10;;;8.77;;
1925;SDS011;964;42.606;23.588;2023-06-04T10:00:58;9.10;;;8.20;;
1925;SDS011;964;42.606;23.588;2023-06-04T10:03:29;9.33;;;8.03;;
1925;SDS011;964;42.606;23.588;2023-06-04T10:05:57;9.60;;;8.70;;
1925;SDS011;964;42.606;23.588;2023-06-04T10:08:25;8.53;;;7.73;;
1925;SDS011;964;42.606;23.588;2023-06-04T10:10:54;8.43;;;7.53;;
1925;SDS011;964;42.606;23.588;2023-06-04T10:13:23;10.53;;;9.40;;
1925;SDS011;964;42.606;23.588;2023-06-04T10:15:52;9.80;;;7.63;;
1925;SDS011;964;42.606;23.588;2023-06-04T10:18:23;9.50;;;8.60;;
1925;SDS011;964;42.606;23.588;2023-06-04T10:20:50;9.57;;;8.67;;
1925;SDS011;964;42.606;23.588;2023-06-04T10:23:20;10.23;;;9.30;;
1925;SDS011;964;42.606;23.588;2023-06-04T10:25:48;9.73;;;7.93;;
1925;SDS011;964;42.606;23.588;2023-06-04T10:28:19;9.70;;;8.80;;
1925;SDS011;964;42.606;23.588;2023-06-04T10:30:46;10.93;;;9.30;;
1925;SDS011;964;42.606;23.588;2023-06-04T10:33:15;12.67;;;8.93;;
1925;SDS011;964;42.606;23.588;2023-06-04T10:35:45;10.10;;;9.10;;
1925;SDS011;964;42.606;23.588;2023-06-04T10:38:13;9.40;;;8.50;;
1925;SDS011;964;42.606;23.588;2023-06-04T10:40:41;10.73;;;9.70;;
1925;SDS011;964;42.606;23.588;2023-06-04T10:43:08;12.80;;;10.67;;
1925;SDS011;964;42.606;23.588;2023-06-04T10:45:37;11.13;;;9.90;;
1925;SDS011;964;42.606;23.588;2023-06-04T10:48:06;10.50;;;9.40;;
1925;SDS011;964;42.606;23.588;2023-06-04T10:50:33;11.30;;;10.13;;
1925;SDS011;964;42.606;23.588;2023-06-04T10:53:01;11.80;;;10.80;;
1925;SDS011;964;42.606;23.588;2023-06-04T10:55:29;11.50;;;10.40;;
1925;SDS011;964;42.606;23.588;2023-06-04T10:57:56;17.70;;;10.57;;
1925;SDS011;964;42.606;23.588;2023-06-04T11:00:34;9.03;;;7.67;;
1925;SDS011;964;42.606;23.588;2023-06-04T11:03:02;11.50;;;10.10;;
1925;SDS011;964;42.606;23.588;2023-06-04T11:05:34;10.27;;;9.27;;
1925;SDS011;964;42.606;23.588;2023-06-04T11:08:01;10.03;;;8.40;;
1925;SDS011;964;42.606;23.588;2023-06-04T11:10:31;9.20;;;8.27;;
1925;SDS011;964;42.606;23.588;2023-06-04T11:12:59;12.77;;;8.70;;
1925;SDS011;964;42.606;23.588;2023-06-04T11:15:26;10.20;;;9.20;;
1925;SDS011;964;42.606;23.588;2023-06-04T11:17:53;10.63;;;9.53;;
1925;SDS011;964;42.606;23.588;2023-06-04T11:20:22;10.77;;;9.43;;
1925;SDS011;964;42.606;23.588;2023-06-04T11:22:53;10.90;;;9.77;;
1925;SDS011;964;42.606;23.588;2023-06-04T11:25:21;10.20;;;9.20;;
1925;SDS011;964;42.606;23.588;2023-06-04T11:27:48;9.97;;;9.03;;
1925;SDS011;964;42.606;23.588;2023-06-04T11:30:16;9.30;;;8.50;;
1925;SDS011;964;42.606;23.588;2023-06-04T11:32:43;10.03;;;9.17;;
1925;SDS011;964;42.606;23.588;2023-06-04T11:35:09;10.00;;;9.10;;
1925;SDS011;964;42.606;23.588;2023-06-04T11:37:38;10.93;;;9.33;;
1925;SDS011;964;42.606;23.588;2023-06-04T11:40:15;10.50;;;9.43;;
1925;SDS011;964;42.606;23.588;2023-06-04T11:42:43;10.67;;;9.63;;
1925;SDS011;964;42.606;23.588;2023-06-04T11:45:12;10.97;;;9.83;;
1925;SDS011;964;42.606;23.588;2023-06-04T11:47:39;9.63;;;8.73;;
1925;SDS011;964;42.606;23.588;2023-06-04T11:50:06;9.00;;;7.50;;
1925;SDS011;964;42.606;23.588;2023-06-04T11:52:34;10.50;;;9.50;;
1925;SDS011;964;42.606;23.588;2023-06-04T11:55:02;10.27;;;9.27;;
1925;SDS011;964;42.606;23.588;2023-06-04T11:57:30;9.53;;;8.27;;
1925;SDS011;964;42.606;23.588;2023-06-04T11:59:57;8.53;;;7.63;;
1925;SDS011;964;42.606;23.588;2023-06-04T12:02:24;7.67;;;6.77;;
1925;SDS011;964;42.606;23.588;2023-06-04T12:04:51;7.70;;;7.00;;
1925;SDS011;964;42.606;23.588;2023-06-04T12:07:19;7.80;;;6.97;;
1925;SDS011;964;42.606;23.588;2023-06-04T12:09:49;8.13;;;7.33;;
1925;SDS011;964;42.606;23.588;2023-06-04T12:12:21;8.10;;;7.30;;
1925;SDS011;964;42.606;23.588;2023-06-04T12:14:55;11.30;;;7.20;;
1925;SDS011;964;42.606;23.588;2023-06-04T12:17:22;8.77;;;7.47;;
1925;SDS011;964;42.606;23.588;2023-06-04T12:19:49;10.37;;;7.80;;
1925;SDS011;964;42.606;23.588;2023-06-04T12:22:17;8.23;;;7.43;;
1925;SDS011;964;42.606;23.588;2023-06-04T12:24:48;7.80;;;7.00;;
1925;SDS011;964;42.606;23.588;2023-06-04T12:27:20;8.63;;;7.87;;
1925;SDS011;964;42.606;23.588;2023-06-04T12:29:57;7.67;;;6.87;;
1925;SDS011;964;42.606;23.588;2023-06-04T12:32:24;6.93;;;6.33;;
1925;SDS011;964;42.606;23.588;2023-06-04T12:34:51;7.37;;;6.73;;
1925;SDS011;964;42.606;23.588;2023-06-04T12:37:18;7.30;;;6.60;;
1925;SDS011;964;42.606;23.588;2023-06-04T12:39:45;9.30;;;7.37;;
1925;SDS011;964;42.606;23.588;2023-06-04T12:42:11;7.60;;;7.00;;
1925;SDS011;964;42.606;23.588;2023-06-04T12:44:39;7.07;;;6.10;;
1925;SDS011;964;42.606;23.588;2023-06-04T12:47:07;6.80;;;6.13;;
1925;SDS011;964;42.606;23.588;2023-06-04T12:49:34;6.80;;;6.10;;
1925;SDS011;964;42.606;23.588;2023-06-04T12:52:00;7.83;;;6.50;;
1925;SDS011;964;42.606;23.588;2023-06-04T12:54:27;6.83;;;6.23;;
1925;SDS011;964;42.606;23.588;2023-06-04T12:56:54;7.03;;;6.33;;
1925;SDS011;964;42.606;23.588;2023-06-04T12:59:22;7.40;;;6.70;;
1925;SDS011;964;42.606;23.588;2023-06-04T13:01:50;6.27;;;5.77;;
1925;SDS011;964;42.606;23.588;2023-06-04T13:04:17;8.73;;;7.60;;
1925;SDS011;964;42.606;23.588;2023-06-04T13:06:44;7.03;;;6.43;;
1925;SDS011;964;42.606;23.588;2023-06-04T13:09:11;8.40;;;7.20;;
1925;SDS011;964;42.606;23.588;2023-06-04T13:11:39;8.33;;;7.53;;
1925;SDS011;964;42.606;23.588;2023-06-04T13:14:08;7.63;;;6.90;;
1925;SDS011;964;42.606;23.588;2023-06-04T13:16:35;7.40;;;6.70;;
1925;SDS011;964;42.606;23.588;2023-06-04T13:19:03;7.40;;;6.80;;
1925;SDS011;964;42.606;23.588;2023-06-04T13:21:30;7.50;;;6.73;;
1925;SDS011;964;42.606;23.588;2023-06-04T13:23:57;8.40;;;7.50;;
1925;SDS011;964;42.606;23.588;2023-06-04T13:26:23;7.07;;;6.40;;
1925;SDS011;964;42.606;23.588;2023-06-04T13:28:50;5.80;;;5.17;;
1925;SDS011;964;42.606;23.588;2023-06-04T13:31:17;6.77;;;6.17;;
1925;SDS011;964;42.606;23.588;2023-06-04T13:33:44;7.70;;;7.00;;
1925;SDS011;964;42.606;23.588;2023-06-04T13:36:12;6.77;;;6.17;;
1925;SDS011;964;42.606;23.588;2023-06-04T13:38:38;8.03;;;7.20;;
1925;SDS011;964;42.606;23.588;2023-06-04T13:41:06;7.93;;;6.57;;
1925;SDS011;964;42.606;23.588;2023-06-04T13:43:33;10.77;;;7.03;;
1925;SDS011;964;42.606;23.588;2023-06-04T13:45:59;7.47;;;6.30;;
1925;SDS011;964;42.606;23.588;2023-06-04T13:48:27;6.70;;;6.10;;
1925;SDS011;964;42.606;23.588;2023-06-04T13:50:54;9.00;;;6.10;;
1925;SDS011;964;42.606;23.588;2023-06-04T13:53:22;9.17;;;7.10;;
1925;SDS011;964;42.606;23.588;2023-06-04T13:55:48;7.23;;;5.97;;
1925;SDS011;964;42.606;23.588;2023-06-04T13:58:22;6.60;;;6.00;;
1925;SDS011;964;42.606;23.588;2023-06-04T14:00:49;6.07;;;5.60;;
1925;SDS011;964;42.606;23.588;2023-06-04T14:03:15;9.33;;;7.00;;
1925;SDS011;964;42.606;23.588;2023-06-04T14:05:42;7.40;;;6.80;;
1925;SDS011;964;42.606;23.588;2023-06-04T14:08:09;7.33;;;6.57;;
1925;SDS011;964;42.606;23.588;2023-06-04T14:10:38;7.80;;;7.10;;
1925;SDS011;964;42.606;23.588;2023-06-04T14:13:07;7.80;;;6.80;;
1925;SDS011;964;42.606;23.588;2023-06-04T14:15:35;9.80;;;7.87;;
1925;SDS011;964;42.606;23.588;2023-06-04T14:18:01;8.10;;;7.30;;
1925;SDS011;964;42.606;23.588;2023-06-04T14:20:29;10.33;;;7.80;;
1925;SDS011;964;42.606;23.588;2023-06-04T14:22:56;7.37;;;6.73;;
1925;SDS011;964;42.606;23.588;2023-06-04T14:25:23;9.20;;;7.67;;
1925;SDS011;964;42.606;23.588;2023-06-04T14:27:51;8.40;;;7.70;;
1925;SDS011;964;42.606;23.588;2023-06-04T14:30:17;9.83;;;7.33;;
1925;SDS011;964;42.606;23.588;2023-06-04T14:32:44;7.47;;;6.87;;
1925;SDS011;964;42.606;23.588;2023-06-04T14:35:11;8.83;;;6.87;;
1925;SDS011;964;42.606;23.588;2023-06-04T14:37:38;10.73;;;7.80;;
1925;SDS011;964;42.606;23.588;2023-06-04T14:40:04;8.03;;;7.03;;
1925;SDS011;964;42.606;23.588;2023-06-04T14:42:32;8.23;;;7.17;;
1925;SDS011;964;42.606;23.588;2023-06-04T14:45:00;8.23;;;6.80;;
1925;SDS011;964;42.606;23.588;2023-06-04T14:47:26;7.20;;;6.60;;
1925;SDS011;964;42.606;23.588;2023-06-04T14:49:53;8.03;;;6.67;;
1925;SDS011;964;42.606;23.588;2023-06-04T14:52:20;8.30;;;7.20;;
1925;SDS011;964;42.606;23.588;2023-06-04T14:54:46;8.27;;;7.57;;
1925;SDS011;964;42.606;23.588;2023-06-04T14:57:13;8.03;;;7.23;;
1925;SDS011;964;42.606;23.588;2023-06-04T14:59:41;8.10;;;7.40;;
1925;SDS011;964;42.606;23.588;2023-06-04T15:02:10;8.20;;;7.50;;
1925;SDS011;964;42.606;23.588;2023-06-04T15:04:36;8.83;;;7.93;;
1925;SDS011;964;42.606;23.588;2023-06-04T15:07:07;7.80;;;7.10;;
1925;SDS011;964;42.606;23.588;2023-06-04T15:09:34;8.27;;;7.57;;
1925;SDS011;964;42.606;23.588;2023-06-04T15:12:01;8.30;;;7.47;;
1925;SDS011;964;42.606;23.588;2023-06-04T15:14:27;8.07;;;7.27;;
1925;SDS011;964;42.606;23.588;2023-06-04T15:16:54;6.53;;;5.50;;